createdAt,value
2023-05-10T00:02:09.647Z,10.87
2023-05-10T00:04:36.610Z,10.98
2023-05-10T00:07:03.593Z,10.89
2023-05-10T00:09:30.555Z,10.98
2023-05-10T00:11:59.472Z,10.95
2023-05-10T00:14:26.478Z,10.96
2023-05-10T00:16:53.559Z,10.75
2023-05-10T00:19:20.759Z,10.71
2023-05-10T00:21:47.735Z,10.78
2023-05-10T00:24:14.717Z,10.89
2023-05-10T00:26:43.212Z,10.59
2023-05-10T00:29:10.402Z,10.69
2023-05-10T00:31:37.370Z,10.60
2023-05-10T00:34:04.543Z,10.40
2023-05-10T00:36:32.282Z,10.42
2023-05-10T00:38:59.553Z,10.17
2023-05-10T00:41:26.582Z,10.42
2023-05-10T00:43:54.823Z,10.39
2023-05-10T00:46:22.552Z,10.46
2023-05-10T00:48:50.133Z,10.26
2023-05-10T00:51:17.311Z,10.48
2023-05-10T00:53:46.982Z,10.57
2023-05-10T00:56:14.364Z,10.25
2023-05-10T00:58:41.514Z,10.56
2023-05-10T01:01:10.230Z,10.59
2023-05-10T01:03:38.022Z,10.49
2023-05-10T01:06:05.193Z,10.77
2023-05-10T01:08:32.432Z,10.72
2023-05-10T01:10:59.854Z,10.75
2023-05-10T01:13:36.171Z,10.81
2023-05-10T01:16:04.439Z,10.71
2023-05-10T01:18:39.037Z,10.77
2023-05-10T01:21:21.007Z,10.84
2023-05-10T01:24:25.506Z,10.82
2023-05-10T01:27:19.921Z,10.68
2023-05-10T01:30:22.297Z,10.83
2023-05-10T01:33:17.644Z,10.74
2023-05-10T01:35:52.062Z,10.73
2023-05-10T01:38:42.217Z,10.72
2023-05-10T01:41:18.639Z,10.77
2023-05-10T01:43:51.602Z,10.70
2023-05-10T01:46:28.247Z,10.61
2023-05-10T01:48:59.307Z,10.74
2023-05-10T01:51:32.545Z,10.77
2023-05-10T01:54:03.209Z,10.91
2023-05-10T01:56:33.268Z,10.86
2023-05-10T01:59:04.175Z,10.85
2023-05-10T02:01:32.161Z,10.93
2023-05-10T02:04:00.238Z,10.90
2023-05-10T02:06:28.366Z,10.82
2023-05-10T02:08:56.830Z,10.83
2023-05-10T02:11:26.074Z,10.74
2023-05-10T02:13:56.247Z,10.74
2023-05-10T02:16:31.999Z,10.67
2023-05-10T02:19:03.002Z,10.67
2023-05-10T02:21:31.900Z,10.65
2023-05-10T02:24:00.215Z,10.67
2023-05-10T02:26:29.976Z,10.70
2023-05-10T02:28:59.434Z,10.66
2023-05-10T02:31:27.508Z,10.71
2023-05-10T02:33:55.659Z,10.73
2023-05-10T02:36:23.976Z,10.69
2023-05-10T02:38:54.260Z,10.63
2023-05-10T02:41:24.147Z,10.74
2023-05-10T02:43:58.609Z,10.72
2023-05-10T02:46:25.857Z,10.75
2023-05-10T02:48:52.808Z,10.80
2023-05-10T02:51:24.198Z,10.73
2023-05-10T02:53:54.429Z,10.63
2023-05-10T02:56:26.850Z,10.62
2023-05-10T02:58:54.023Z,10.71
2023-05-10T03:01:21.090Z,10.67
2023-05-10T03:03:48.026Z,10.72
2023-05-10T03:06:15.443Z,10.79
2023-05-10T03:08:42.494Z,10.70
2023-05-10T03:11:16.516Z,10.67
2023-05-10T03:13:54.656Z,10.69
2023-05-10T03:16:30.408Z,10.83
2023-05-10T03:19:00.071Z,10.75
2023-05-10T03:21:30.940Z,10.78
2023-05-10T03:24:08.102Z,10.73
2023-05-10T03:26:38.253Z,10.80
2023-05-10T03:29:15.354Z,10.77
2023-05-10T03:31:42.609Z,10.72
2023-05-10T03:34:09.661Z,10.49
2023-05-10T03:36:37.182Z,10.65
2023-05-10T03:39:04.164Z,10.72
2023-05-10T03:41:31.509Z,10.58
2023-05-10T03:43:58.456Z,10.72
2023-05-10T03:46:25.681Z,10.85
2023-05-10T03:48:52.956Z,10.81
2023-05-10T03:51:20.563Z,10.68
2023-05-10T03:53:48.756Z,10.52
2023-05-10T03:56:16.234Z,10.62
2023-05-10T03:58:43.285Z,10.59
2023-05-10T04:01:10.791Z,10.43
2023-05-10T04:03:37.967Z,10.54
2023-05-10T04:06:06.392Z,10.60
2023-05-10T04:08:33.760Z,10.59
2023-05-10T04:11:13.986Z,10.63
2023-05-10T04:13:41.096Z,10.81
2023-05-10T04:16:09.312Z,10.70
2023-05-10T04:18:37.981Z,10.70
2023-05-10T04:21:05.462Z,10.76
2023-05-10T04:23:32.393Z,10.83
2023-05-10T04:26:02.946Z,10.81
2023-05-10T04:28:29.933Z,10.94
2023-05-10T04:31:06.997Z,11.08
2023-05-10T04:33:34.938Z,11.11
2023-05-10T04:36:02.258Z,11.26
2023-05-10T04:38:29.752Z,11.35
2023-05-10T04:41:06.263Z,11.26
2023-05-10T04:43:33.344Z,11.32
2023-05-10T04:46:00.597Z,11.42
2023-05-10T04:48:27.866Z,11.59
2023-05-10T04:50:55.333Z,11.49
2023-05-10T04:53:22.378Z,11.60
2023-05-10T04:55:49.941Z,11.71
2023-05-10T04:58:17.062Z,11.66
2023-05-10T05:00:44.136Z,11.70
2023-05-10T05:03:11.386Z,11.71
2023-05-10T05:05:38.655Z,11.80
2023-05-10T05:08:05.796Z,11.94
2023-05-10T05:10:32.992Z,11.89
2023-05-10T05:12:59.981Z,11.90
2023-05-10T05:15:28.508Z,11.96
2023-05-10T05:17:55.592Z,12.03
2023-05-10T05:20:22.704Z,12.24
2023-05-10T05:22:50.126Z,12.42
2023-05-10T05:25:19.258Z,12.87
2023-05-10T05:27:47.462Z,13.03
2023-05-10T05:30:14.527Z,13.18
2023-05-10T05:32:41.565Z,13.18
2023-05-10T05:35:08.808Z,13.14
2023-05-10T05:37:37.505Z,12.88
2023-05-10T05:40:05.950Z,12.70
2023-05-10T05:42:34.335Z,12.70
2023-05-10T05:45:02.516Z,12.63
2023-05-10T05:47:34.521Z,12.63
2023-05-10T05:50:03.149Z,12.77
2023-05-10T05:52:34.218Z,12.61
2023-05-10T05:55:01.259Z,12.75
2023-05-10T05:57:28.992Z,12.94
2023-05-10T05:59:56.263Z,12.81
2023-05-10T06:02:23.878Z,12.75
2023-05-10T06:04:51.495Z,12.65
2023-05-10T06:07:20.935Z,12.66
2023-05-10T06:09:48.044Z,12.67
2023-05-10T06:12:15.201Z,12.59
2023-05-10T06:14:42.260Z,12.51
2023-05-10T06:17:09.370Z,12.39
2023-05-10T06:19:36.830Z,12.48
2023-05-10T06:22:04.909Z,12.19
2023-05-10T06:24:31.864Z,12.33
2023-05-10T06:27:01.170Z,12.25
2023-05-10T06:29:29.448Z,12.36
2023-05-10T06:31:56.653Z,12.43
2023-05-10T06:34:23.904Z,12.79
2023-05-10T06:36:50.858Z,12.74
2023-05-10T06:39:18.343Z,12.79
2023-05-10T06:41:45.394Z,12.96
2023-05-10T06:44:12.510Z,13.14
2023-05-10T06:46:39.737Z,13.02
2023-05-10T06:49:06.813Z,12.70
2023-05-10T06:51:34.019Z,12.43
2023-05-10T06:54:01.277Z,12.57
2023-05-10T06:56:33.189Z,12.75
2023-05-10T06:59:00.708Z,12.79
2023-05-10T07:01:27.868Z,13.15
2023-05-10T07:03:54.940Z,13.28
2023-05-10T07:06:33.028Z,13.48
2023-05-10T07:09:04.129Z,13.18
2023-05-10T07:11:35.038Z,13.69
2023-05-10T07:14:04.022Z,13.68
2023-05-10T07:16:36.399Z,13.89
2023-05-10T07:19:03.952Z,13.97
2023-05-10T07:27:32.186Z,13.95
2023-05-10T07:29:59.829Z,13.88
2023-05-10T07:32:28.710Z,13.72
2023-05-10T07:34:58.168Z,13.74
2023-05-10T07:37:25.176Z,13.90
2023-05-10T07:39:56.130Z,13.72
2023-05-10T07:42:23.639Z,13.52
2023-05-10T07:44:50.700Z,13.61
2023-05-10T07:47:17.640Z,13.11
2023-05-10T07:49:46.659Z,13.01
2023-05-10T07:52:14.851Z,13.04
2023-05-10T07:54:44.541Z,13.28
2023-05-10T07:57:11.921Z,12.85
2023-05-10T07:59:38.930Z,12.98
2023-05-10T08:02:07.215Z,13.35
2023-05-10T08:04:34.643Z,13.56
2023-05-10T08:07:02.812Z,13.59
2023-05-10T08:09:30.013Z,13.33
2023-05-10T08:12:01.249Z,12.90
2023-05-10T08:14:34.026Z,13.44
2023-05-10T08:17:01.165Z,13.36
2023-05-10T08:19:28.420Z,13.43
2023-05-10T08:21:57.107Z,14.09
2023-05-10T08:24:24.204Z,14.28
2023-05-10T08:26:51.153Z,14.57
2023-05-10T08:29:18.159Z,14.75
2023-05-10T08:31:45.563Z,14.78
2023-05-10T08:34:13.658Z,14.13
2023-05-10T08:36:41.278Z,13.54
2023-05-10T08:39:16.133Z,13.84
2023-05-10T08:41:53.247Z,13.76
2023-05-10T08:44:22.295Z,13.84
2023-05-10T08:46:55.882Z,14.26
2023-05-10T08:49:26.547Z,14.53
2023-05-10T08:51:56.152Z,14.52
2023-05-10T08:54:25.599Z,14.61
2023-05-10T08:56:56.358Z,14.66
2023-05-10T08:59:23.973Z,14.99
2023-05-10T09:01:52.535Z,14.94
2023-05-10T09:04:20.677Z,15.06
2023-05-10T09:06:47.808Z,14.62
2023-05-10T09:09:15.854Z,14.51
2023-05-10T09:11:43.250Z,14.82
2023-05-10T09:14:10.949Z,14.94
2023-05-10T09:16:42.430Z,14.93
2023-05-10T09:19:12.460Z,14.81
2023-05-10T09:21:41.655Z,14.74
2023-05-10T09:24:11.442Z,14.55
2023-05-10T09:26:49.392Z,14.93
2023-05-10T09:29:17.775Z,14.75
2023-05-10T09:31:47.713Z,14.94
2023-05-10T09:34:30.381Z,14.78
2023-05-10T09:37:01.732Z,14.54
2023-05-10T09:39:37.303Z,14.51
2023-05-10T09:42:12.048Z,14.23
2023-05-10T09:44:41.420Z,14.49
2023-05-10T09:47:08.761Z,14.17
2023-05-10T09:49:36.262Z,14.01
2023-05-10T09:52:05.151Z,14.16
2023-05-10T09:54:33.221Z,14.63
2023-05-10T09:57:00.855Z,14.60
2023-05-10T09:59:29.724Z,14.78
2023-05-10T10:02:01.573Z,14.78
2023-05-10T10:04:29.528Z,14.87
2023-05-10T10:07:05.941Z,15.13
2023-05-10T10:09:34.290Z,15.19
2023-05-10T10:12:03.482Z,14.96
2023-05-10T10:14:31.981Z,15.10
2023-05-10T10:19:34.741Z,15.17
2023-05-10T10:22:02.856Z,15.53
2023-05-10T10:24:30.647Z,15.48
2023-05-10T10:27:05.693Z,15.52
2023-05-10T10:29:43.338Z,15.55
2023-05-10T10:32:27.185Z,15.78
2023-05-10T10:34:57.979Z,15.78
2023-05-10T10:37:44.501Z,15.68
2023-05-10T10:40:34.993Z,15.36
2023-05-10T10:43:25.767Z,15.51
2023-05-10T10:46:15.830Z,15.78
2023-05-10T10:48:49.261Z,15.67
2023-05-10T10:51:16.498Z,15.17
2023-05-10T10:53:44.589Z,15.48
2023-05-10T10:56:16.442Z,15.77
2023-05-10T10:58:54.752Z,15.34
2023-05-10T11:01:23.523Z,15.50
2023-05-10T11:04:07.437Z,15.48
2023-05-10T11:06:37.021Z,15.45
2023-05-10T11:09:09.536Z,15.50
2023-05-10T11:11:37.614Z,15.48
2023-05-10T11:14:06.877Z,14.78
2023-05-10T11:16:43.982Z,14.86
2023-05-10T11:19:14.317Z,14.98
2023-05-10T11:21:48.932Z,15.21
2023-05-10T11:24:20.929Z,15.39
2023-05-10T11:26:52.056Z,15.78
2023-05-10T11:29:21.162Z,16.04
2023-05-10T11:31:49.558Z,15.97
2023-05-10T11:34:25.042Z,16.09
2023-05-10T11:36:55.751Z,15.91
2023-05-10T11:39:31.599Z,15.89
2023-05-10T11:42:02.291Z,15.93
2023-05-10T11:44:33.874Z,15.85
2023-05-10T11:47:05.427Z,15.91
2023-05-10T11:49:32.459Z,16.21
2023-05-10T11:52:10.268Z,16.03
2023-05-10T11:54:37.374Z,16.30
2023-05-10T11:57:04.940Z,16.27
2023-05-10T11:59:32.748Z,16.13
2023-05-10T12:02:00.220Z,16.11
2023-05-10T12:04:30.781Z,15.68
2023-05-10T12:06:58.404Z,16.07
2023-05-10T12:09:42.706Z,16.21
2023-05-10T12:12:10.934Z,16.42
2023-05-10T12:14:38.197Z,16.41
2023-05-10T12:17:05.329Z,16.35
2023-05-10T12:19:50.621Z,16.08
2023-05-10T12:22:22.010Z,15.76
2023-05-10T12:24:49.080Z,16.12
2023-05-10T12:27:17.175Z,16.50
2023-05-10T12:29:47.982Z,16.22
2023-05-10T12:32:15.004Z,16.08
2023-05-10T12:34:42.082Z,16.07
2023-05-10T12:37:09.568Z,16.23
2023-05-10T12:39:43.697Z,15.83
2023-05-10T12:42:11.940Z,16.39
2023-05-10T12:44:41.165Z,16.02
2023-05-10T12:47:08.477Z,16.44
2023-05-10T12:49:36.293Z,16.57
2023-05-10T12:52:03.461Z,16.45
2023-05-10T12:54:30.560Z,16.50
2023-05-10T12:56:57.487Z,16.28
2023-05-10T12:59:24.465Z,16.25
2023-05-10T13:01:51.408Z,16.21
2023-05-10T13:04:18.368Z,16.43
2023-05-10T13:06:45.508Z,16.50
2023-05-10T13:12:33.597Z,16.23
2023-05-10T13:15:00.698Z,16.27
2023-05-10T13:17:27.917Z,16.56
2023-05-10T13:19:57.725Z,16.67
2023-05-10T13:22:36.348Z,16.85
2023-05-10T13:25:08.060Z,17.06
2023-05-10T13:27:36.651Z,17.05
2023-05-10T13:30:04.626Z,17.10
2023-05-10T13:32:34.380Z,17.08
2023-05-10T13:35:01.832Z,16.79
2023-05-10T13:37:29.446Z,16.94
2023-05-10T13:39:57.553Z,16.65
2023-05-10T13:42:24.921Z,16.62
2023-05-10T13:44:52.479Z,16.29
2023-05-10T13:47:19.692Z,16.10
2023-05-10T13:49:46.832Z,15.74
2023-05-10T13:52:14.732Z,15.76
2023-05-10T13:54:45.867Z,15.85
2023-05-10T13:57:20.136Z,15.88
2023-05-10T13:59:48.339Z,15.94
2023-05-10T14:02:19.007Z,15.76
2023-05-10T14:04:46.113Z,15.76
2023-05-10T14:07:21.600Z,15.82
2023-05-10T14:09:51.689Z,16.10
2023-05-10T14:12:20.880Z,16.42
2023-05-10T14:14:48.028Z,16.43
2023-05-10T14:17:15.384Z,16.08
2023-05-10T14:19:43.481Z,16.25
2023-05-10T14:22:15.468Z,16.26
2023-05-10T14:24:45.790Z,16.02
2023-05-10T14:27:14.771Z,15.59
2023-05-10T14:29:41.786Z,15.03
2023-05-10T14:32:11.406Z,15.23
2023-05-10T14:34:38.520Z,15.18
2023-05-10T14:37:11.970Z,15.13
2023-05-10T14:39:39.078Z,15.18
2023-05-10T14:42:07.098Z,15.57
2023-05-10T14:44:34.657Z,15.74
2023-05-10T14:47:04.373Z,15.49
2023-05-10T14:49:31.961Z,15.56
2023-05-10T14:52:03.230Z,15.77
2023-05-10T14:54:49.219Z,15.95
2023-05-10T14:57:16.361Z,15.83
2023-05-10T14:59:44.315Z,15.68
2023-05-10T15:02:12.222Z,15.46
2023-05-10T15:04:39.770Z,15.40
2023-05-10T15:07:07.260Z,15.28
2023-05-10T15:09:34.399Z,15.10
2023-05-10T15:12:01.694Z,14.82
2023-05-10T15:14:29.137Z,14.71
2023-05-10T15:16:56.394Z,14.56
2023-05-10T15:19:23.615Z,14.76
2023-05-10T15:21:51.972Z,14.85
2023-05-10T15:24:19.546Z,14.69
2023-05-10T15:26:47.150Z,14.72
2023-05-10T15:29:30.895Z,14.70
2023-05-10T15:35:23.630Z,14.64
2023-05-10T15:37:52.381Z,14.73
2023-05-10T15:40:19.473Z,14.96
2023-05-10T15:42:47.951Z,15.06
2023-05-10T15:45:16.647Z,15.22
2023-05-10T15:47:45.651Z,15.25
2023-05-10T15:50:13.278Z,15.21
2023-05-10T15:52:42.179Z,15.18
2023-05-10T15:55:13.349Z,15.00
2023-05-10T15:57:42.848Z,15.04
2023-05-10T16:00:13.851Z,14.98
2023-05-10T16:02:42.978Z,14.96
2023-05-10T16:05:10.415Z,15.03
2023-05-10T16:07:37.492Z,15.04
2023-05-10T16:10:06.607Z,15.05
2023-05-10T16:12:34.521Z,15.06
2023-05-10T16:15:02.220Z,15.12
2023-05-10T16:17:32.231Z,15.16
2023-05-10T16:20:01.290Z,15.00
2023-05-10T16:22:30.923Z,15.01
2023-05-10T16:24:58.100Z,15.04
2023-05-10T16:27:25.829Z,14.83
2023-05-10T16:29:53.078Z,14.89
2023-05-10T16:32:22.567Z,14.84
2023-05-10T16:34:50.359Z,14.71
2023-05-10T16:37:17.673Z,14.74
2023-05-10T16:39:44.663Z,14.67
2023-05-10T16:42:12.773Z,14.78
2023-05-10T16:44:39.972Z,14.54
2023-05-10T16:47:07.999Z,14.73
2023-05-10T16:52:03.797Z,14.78
2023-05-10T16:54:31.056Z,14.79
2023-05-10T16:56:58.060Z,14.76
2023-05-10T16:59:25.089Z,14.84
2023-05-10T17:01:53.367Z,14.74
2023-05-10T17:04:20.560Z,14.67
2023-05-10T17:06:50.226Z,14.62
2023-05-10T17:09:17.257Z,14.69
2023-05-10T17:11:44.197Z,14.48
2023-05-10T17:14:12.352Z,14.52
2023-05-10T17:16:39.553Z,14.36
2023-05-10T17:19:07.581Z,14.46
2023-05-10T17:21:38.201Z,14.39
2023-05-10T17:24:05.537Z,14.34
2023-05-10T17:26:34.684Z,14.40
2023-05-10T17:29:01.719Z,14.52
2023-05-10T17:31:29.040Z,14.40
2023-05-10T17:33:56.668Z,14.29
2023-05-10T17:36:35.803Z,14.25
2023-05-10T17:39:03.979Z,13.98
2023-05-10T17:41:30.951Z,13.84
2023-05-10T17:43:57.946Z,13.87
2023-05-10T17:46:26.017Z,13.95
2023-05-10T17:48:53.668Z,13.82
2023-05-10T17:51:23.412Z,13.82
2023-05-10T17:53:50.510Z,13.84
2023-05-10T17:56:17.462Z,13.90
2023-05-10T17:58:44.833Z,13.93
2023-05-10T18:01:13.110Z,13.83
2023-05-10T18:03:40.310Z,13.70
2023-05-10T18:06:07.866Z,13.71
2023-05-10T18:11:28.410Z,13.19
2023-05-10T18:13:58.622Z,13.48
2023-05-10T18:16:27.059Z,13.30
2023-05-10T18:18:57.028Z,13.26
2023-05-10T18:21:26.247Z,13.26
2023-05-10T18:23:56.377Z,13.27
2023-05-10T18:26:28.731Z,13.33
2023-05-10T18:28:57.650Z,13.09
2023-05-10T18:31:29.724Z,13.07
2023-05-10T18:34:01.319Z,13.10
2023-05-10T18:36:30.278Z,13.01
2023-05-10T18:38:59.108Z,13.02
2023-05-10T18:41:28.920Z,12.99
2023-05-10T18:44:02.271Z,12.94
2023-05-10T18:46:32.212Z,12.88
2023-05-10T18:49:00.941Z,12.99
2023-05-10T18:51:33.378Z,12.99
2023-05-10T18:54:08.159Z,12.89
2023-05-10T18:56:39.691Z,12.98
2023-05-10T18:59:07.517Z,12.88
2023-05-10T19:01:34.536Z,12.69
2023-05-10T19:04:01.617Z,12.66
2023-05-10T19:06:28.858Z,12.33
2023-05-10T19:08:59.549Z,12.40
2023-05-10T19:11:28.928Z,12.31
2023-05-10T19:13:59.852Z,12.12
2023-05-10T19:16:30.757Z,12.05
2023-05-10T19:19:01.360Z,12.15
2023-05-10T19:21:29.944Z,12.09
2023-05-10T19:23:57.841Z,11.99
2023-05-10T19:26:35.832Z,12.06
2023-05-10T19:29:06.522Z,11.82
2023-05-10T19:34:18.236Z,11.84
2023-05-10T19:36:45.425Z,11.66
2023-05-10T19:39:15.795Z,11.75
2023-05-10T19:41:45.214Z,11.66
2023-05-10T19:44:19.360Z,11.42
2023-05-10T19:46:47.216Z,11.43
2023-05-10T19:49:14.575Z,11.40
2023-05-10T19:51:43.529Z,11.40
2023-05-10T19:54:19.176Z,11.49
2023-05-10T19:56:46.296Z,11.48
2023-05-10T19:59:20.756Z,11.25
2023-05-10T20:04:38.271Z,11.25
2023-05-10T20:07:05.374Z,11.33
2023-05-10T20:09:34.001Z,11.24
2023-05-10T20:12:01.040Z,11.51
2023-05-10T20:14:29.682Z,11.46
2023-05-10T20:16:58.567Z,11.48
2023-05-10T20:19:31.540Z,11.25
2023-05-10T20:21:58.904Z,11.38
2023-05-10T20:24:28.173Z,11.45
2023-05-10T20:26:58.251Z,11.42
2023-05-10T20:29:28.214Z,11.42
2023-05-10T20:31:55.970Z,11.51
2023-05-10T20:34:27.974Z,11.40
2023-05-10T20:36:56.937Z,11.38
2023-05-10T20:39:26.193Z,11.42
2023-05-10T20:42:00.278Z,11.56
2023-05-10T20:44:27.816Z,11.43
2023-05-10T20:46:57.671Z,11.44
2023-05-10T20:49:24.658Z,11.31
2023-05-10T20:51:54.016Z,11.27
2023-05-10T20:54:24.611Z,10.84
2023-05-10T20:56:58.467Z,11.11
2023-05-10T20:59:25.972Z,11.13
2023-05-10T21:01:54.256Z,10.83
2023-05-10T21:04:23.084Z,10.79
2023-05-10T21:06:52.786Z,10.84
2023-05-10T21:09:20.017Z,10.88
2023-05-10T21:11:47.410Z,10.86
2023-05-10T21:14:16.053Z,10.86
2023-05-10T21:16:42.990Z,10.65
2023-05-10T21:19:12.012Z,10.75
2023-05-10T21:21:39.507Z,10.82
2023-05-10T21:24:20.423Z,11.00
2023-05-10T21:26:47.311Z,11.04
2023-05-10T21:29:16.224Z,11.27
2023-05-10T21:31:44.353Z,11.27
2023-05-10T21:34:14.525Z,11.37
2023-05-10T21:37:13.573Z,11.36
2023-05-10T21:39:45.904Z,11.48
2023-05-10T21:45:35.999Z,11.36
2023-05-10T21:48:11.748Z,11.51
2023-05-10T21:50:40.098Z,11.48
2023-05-10T21:53:09.621Z,11.43
2023-05-10T21:55:38.430Z,11.39
2023-05-10T21:58:07.154Z,11.38
2023-05-10T22:00:42.943Z,11.52
2023-05-10T22:03:16.568Z,11.11
2023-05-10T22:05:47.508Z,11.34
2023-05-10T22:08:19.321Z,11.35
2023-05-10T22:10:46.721Z,11.35
2023-05-10T22:13:13.678Z,11.37
2023-05-10T22:15:40.630Z,11.38
2023-05-10T22:18:07.874Z,11.21
2023-05-10T22:20:34.893Z,11.15
2023-05-10T22:23:02.193Z,11.05
2023-05-10T22:25:29.137Z,11.19
2023-05-10T22:27:56.040Z,11.08
2023-05-10T22:30:23.098Z,11.07
2023-05-10T22:32:50.039Z,11.20
2023-05-10T22:35:17.140Z,11.30
2023-05-10T22:37:45.010Z,11.40
2023-05-10T22:40:13.292Z,11.40
2023-05-10T22:42:40.259Z,11.23
2023-05-10T22:47:54.451Z,11.17
2023-05-10T22:50:22.320Z,11.30
2023-05-10T22:52:52.679Z,11.29
2023-05-10T22:55:19.641Z,11.38
2023-05-10T22:57:47.209Z,11.48
2023-05-10T23:00:14.667Z,11.48
2023-05-10T23:02:41.836Z,11.50
2023-05-10T23:05:09.567Z,11.35
2023-05-10T23:07:36.506Z,11.35
2023-05-10T23:10:03.491Z,11.28
2023-05-10T23:12:32.309Z,11.28
2023-05-10T23:15:00.138Z,11.27
2023-05-10T23:17:27.258Z,11.38
2023-05-10T23:19:54.330Z,11.43
2023-05-10T23:22:21.259Z,11.42
2023-05-10T23:24:48.190Z,11.46
2023-05-10T23:27:15.126Z,11.53
2023-05-10T23:29:42.252Z,11.55
2023-05-10T23:32:09.225Z,11.40
2023-05-10T23:34:36.255Z,11.39
2023-05-10T23:37:03.231Z,11.40
2023-05-10T23:39:30.107Z,11.29
2023-05-10T23:41:57.102Z,11.21
2023-05-10T23:44:24.430Z,11.15
2023-05-10T23:46:51.670Z,11.06
2023-05-10T23:49:18.624Z,10.91
2023-05-10T23:51:45.646Z,11.00
2023-05-10T23:54:12.726Z,11.05
2023-05-10T23:56:39.743Z,10.96
2023-05-10T23:59:06.753Z,10.89
